createdAt,value
2023-03-19T00:00:27.980Z,11.20
2023-03-19T00:01:27.898Z,11.10
2023-03-19T00:02:27.956Z,12.00
2023-03-19T00:03:28.016Z,10.20
2023-03-19T00:04:27.896Z,11.10
2023-03-19T00:05:27.890Z,12.80
2023-03-19T00:06:27.855Z,12.50
2023-03-19T00:07:27.832Z,13.30
2023-03-19T00:08:27.825Z,10.80
2023-03-19T00:09:27.832Z,11.40
2023-03-19T00:10:27.857Z,12.00
2023-03-19T00:11:27.797Z,12.00
2023-03-19T00:12:27.795Z,12.40
2023-03-19T00:13:27.805Z,11.60
2023-03-19T00:14:27.755Z,12.00
2023-03-19T00:15:27.747Z,12.70
2023-03-19T00:16:27.827Z,12.10
2023-03-19T00:17:27.744Z,11.90
2023-03-19T00:18:27.710Z,11.50
2023-03-19T00:19:27.697Z,12.70
2023-03-19T00:20:27.689Z,14.10
2023-03-19T00:21:30.520Z,11.60
2023-03-19T00:22:27.762Z,14.40
2023-03-19T00:23:27.678Z,11.30
2023-03-19T00:24:27.640Z,12.20
2023-03-19T00:25:27.629Z,12.30
2023-03-19T00:26:27.650Z,13.90
2023-03-19T00:27:27.620Z,14.00
2023-03-19T00:28:27.659Z,12.70
2023-03-19T00:29:27.611Z,14.70
2023-03-19T00:30:28.486Z,13.00
2023-03-19T00:31:27.559Z,11.30
2023-03-19T00:32:27.564Z,12.20
2023-03-19T00:33:27.597Z,13.40
2023-03-19T00:34:27.601Z,13.50
2023-03-19T00:35:27.514Z,15.80
2023-03-19T00:36:27.505Z,17.90
2023-03-19T00:37:27.495Z,16.20
2023-03-19T00:38:27.498Z,14.80
2023-03-19T00:39:27.505Z,16.30
2023-03-19T00:40:27.531Z,16.20
2023-03-19T00:41:27.490Z,15.80
2023-03-19T00:42:27.444Z,15.90
2023-03-19T00:43:27.429Z,15.20
2023-03-19T00:44:27.411Z,15.40
2023-03-19T00:45:27.450Z,13.40
2023-03-19T00:46:27.561Z,14.00
2023-03-19T00:47:27.386Z,14.70
2023-03-19T00:48:27.379Z,15.10
2023-03-19T00:49:27.392Z,12.70
2023-03-19T00:50:27.375Z,15.40
2023-03-19T00:51:27.392Z,15.70
2023-03-19T00:52:27.328Z,15.00
2023-03-19T00:53:27.353Z,14.20
2023-03-19T00:54:27.319Z,15.50
2023-03-19T00:55:27.333Z,12.80
2023-03-19T00:56:27.298Z,14.00
2023-03-19T00:57:27.306Z,13.40
2023-03-19T00:58:27.265Z,15.00
2023-03-19T00:59:27.249Z,13.70
2023-03-19T01:00:27.259Z,14.10
2023-03-19T01:01:27.319Z,13.70
2023-03-19T01:02:27.230Z,13.90
2023-03-19T01:03:27.198Z,13.70
2023-03-19T01:04:27.273Z,14.70
2023-03-19T01:05:27.192Z,13.50
2023-03-19T01:06:27.185Z,12.20
2023-03-19T01:07:27.193Z,14.50
2023-03-19T01:08:27.178Z,12.20
2023-03-19T01:09:27.200Z,12.90
2023-03-19T01:10:27.122Z,13.60
2023-03-19T01:11:27.147Z,13.20
2023-03-19T01:12:27.115Z,13.60
2023-03-19T01:13:27.098Z,15.50
2023-03-19T01:14:27.091Z,12.90
2023-03-19T01:15:27.171Z,14.90
2023-03-19T01:16:27.069Z,14.70
2023-03-19T01:17:27.088Z,15.60
2023-03-19T01:18:27.032Z,13.80
2023-03-19T01:19:27.027Z,15.60
2023-03-19T01:20:27.008Z,15.60
2023-03-19T01:21:27.047Z,16.50
2023-03-19T01:22:27.014Z,89.90
2023-03-19T01:23:26.996Z,83.70
2023-03-19T01:24:26.995Z,65.70
2023-03-19T01:25:26.970Z,52.50
2023-03-19T01:26:26.940Z,43.00
2023-03-19T01:27:26.989Z,29.90
2023-03-19T01:28:26.918Z,27.00
2023-03-19T01:29:26.936Z,24.70
2023-03-19T01:30:26.904Z,21.00
2023-03-19T01:31:26.917Z,16.00
2023-03-19T01:32:26.872Z,15.60
2023-03-19T01:33:26.894Z,15.90
2023-03-19T01:34:26.878Z,13.90
2023-03-19T01:35:26.845Z,16.30
2023-03-19T01:36:26.836Z,15.80
2023-03-19T01:37:26.809Z,18.00
2023-03-19T01:38:26.821Z,18.70
2023-03-19T01:39:26.830Z,23.00
2023-03-19T01:40:26.793Z,16.20
2023-03-19T01:41:26.805Z,18.60
2023-03-19T01:42:26.779Z,17.80
2023-03-19T01:43:26.741Z,18.70
2023-03-19T01:44:26.730Z,19.20
2023-03-19T01:45:26.747Z,19.30
2023-03-19T01:46:26.774Z,18.20
2023-03-19T01:47:26.707Z,17.80
2023-03-19T01:48:26.700Z,16.20
2023-03-19T01:49:26.695Z,16.70
2023-03-19T01:50:26.689Z,15.90
2023-03-19T01:51:26.700Z,13.30
2023-03-19T01:52:26.647Z,14.80
2023-03-19T01:53:26.657Z,13.00
2023-03-19T01:54:26.617Z,14.90
2023-03-19T01:55:26.606Z,13.20
2023-03-19T01:56:26.599Z,12.90
2023-03-19T01:57:26.649Z,12.30
2023-03-19T01:58:26.622Z,12.00
2023-03-19T01:59:26.560Z,13.20
2023-03-19T02:00:26.551Z,14.30
2023-03-19T02:01:26.659Z,12.30
2023-03-19T02:02:26.534Z,12.00
2023-03-19T02:03:26.546Z,12.90
2023-03-19T02:04:26.643Z,12.90
2023-03-19T02:05:26.511Z,12.80
2023-03-19T02:06:26.483Z,13.70
2023-03-19T02:07:26.508Z,12.60
2023-03-19T02:08:26.462Z,12.70
2023-03-19T02:09:26.499Z,12.30
2023-03-19T02:10:26.463Z,11.90
2023-03-19T02:11:26.428Z,13.50
2023-03-19T02:12:26.417Z,11.50
2023-03-19T02:13:26.439Z,13.20
2023-03-19T02:14:26.428Z,14.00
2023-03-19T02:15:26.432Z,14.40
2023-03-19T02:16:26.441Z,13.60
2023-03-19T02:17:26.360Z,13.70
2023-03-19T02:18:26.376Z,13.70
2023-03-19T02:19:26.338Z,13.30
2023-03-19T02:20:26.363Z,12.10
2023-03-19T02:21:26.371Z,13.40
2023-03-19T02:22:26.943Z,11.90
2023-03-19T02:23:26.340Z,13.50
2023-03-19T02:24:26.277Z,12.30
2023-03-19T02:25:26.268Z,13.10
2023-03-19T02:26:26.265Z,15.00
2023-03-19T02:27:26.304Z,15.30
2023-03-19T02:28:26.246Z,14.10
2023-03-19T02:29:26.246Z,14.50
2023-03-19T02:30:26.214Z,13.30
2023-03-19T02:31:26.269Z,14.00
2023-03-19T02:32:26.226Z,15.50
2023-03-19T02:33:26.222Z,14.10
2023-03-19T02:34:26.164Z,16.90
2023-03-19T02:35:26.156Z,15.20
2023-03-19T02:36:26.152Z,14.50
2023-03-19T02:37:26.192Z,17.30
2023-03-19T02:38:26.142Z,14.60
2023-03-19T02:39:26.195Z,14.90
2023-03-19T02:40:26.099Z,14.00
2023-03-19T02:41:26.088Z,15.30
2023-03-19T02:42:26.088Z,16.40
2023-03-19T02:43:26.077Z,14.50
2023-03-19T02:44:26.085Z,14.50
2023-03-19T02:45:26.115Z,16.40
2023-03-19T02:46:26.065Z,14.50
2023-03-19T02:47:26.031Z,15.10
2023-03-19T02:48:26.007Z,16.40
2023-03-19T02:49:26.007Z,15.20
2023-03-19T02:50:26.019Z,13.80
2023-03-19T02:51:26.066Z,13.90
2023-03-19T02:52:25.961Z,14.60
2023-03-19T02:53:25.989Z,15.40
2023-03-19T02:54:25.946Z,13.40
2023-03-19T02:55:25.943Z,16.20
2023-03-19T02:56:25.945Z,16.20
2023-03-19T02:57:25.968Z,14.40
2023-03-19T02:58:25.897Z,15.40
2023-03-19T02:59:25.882Z,14.50
2023-03-19T03:00:26.112Z,14.90
2023-03-19T03:01:25.894Z,14.60
2023-03-19T03:02:25.995Z,14.90
2023-03-19T03:03:25.913Z,14.20
2023-03-19T03:04:25.852Z,14.90
2023-03-19T03:05:25.824Z,14.60
2023-03-19T03:06:25.817Z,13.80
2023-03-19T03:07:25.825Z,14.00
2023-03-19T03:08:25.787Z,14.50
2023-03-19T03:09:25.867Z,15.20
2023-03-19T03:10:25.781Z,13.70
2023-03-19T03:11:25.762Z,13.20
2023-03-19T03:12:25.768Z,14.50
2023-03-19T03:13:25.730Z,13.80
2023-03-19T03:14:25.751Z,13.40
2023-03-19T03:15:25.751Z,13.20
2023-03-19T03:16:25.804Z,12.30
2023-03-19T03:17:25.702Z,12.50
2023-03-19T03:18:25.674Z,13.10
2023-03-19T03:19:25.665Z,12.70
2023-03-19T03:20:25.676Z,13.10
2023-03-19T03:21:25.697Z,12.40
2023-03-19T03:22:25.637Z,13.10
2023-03-19T03:23:25.631Z,11.90
2023-03-19T03:24:25.607Z,11.20
2023-03-19T03:25:25.636Z,12.80
2023-03-19T03:26:25.583Z,11.80
2023-03-19T03:27:25.631Z,12.30
2023-03-19T03:28:25.574Z,10.80
2023-03-19T03:29:25.587Z,11.60
2023-03-19T03:30:25.538Z,12.70
2023-03-19T03:31:25.574Z,13.70
2023-03-19T03:32:25.525Z,12.50
2023-03-19T03:33:25.541Z,13.00
2023-03-19T03:34:25.506Z,12.40
2023-03-19T03:35:25.582Z,14.40
2023-03-19T03:36:25.471Z,15.90
2023-03-19T03:37:25.461Z,15.60
2023-03-19T03:38:25.473Z,13.70
2023-03-19T03:39:25.495Z,13.10
2023-03-19T03:40:25.443Z,15.60
2023-03-19T03:41:25.435Z,13.60
2023-03-19T03:42:25.449Z,12.70
2023-03-19T03:43:25.397Z,12.60
2023-03-19T03:44:25.383Z,13.90
2023-03-19T03:45:25.416Z,14.10
2023-03-19T03:46:25.361Z,13.70
2023-03-19T03:47:25.396Z,13.50
2023-03-19T03:48:25.360Z,14.40
2023-03-19T03:49:25.351Z,14.20
2023-03-19T03:50:25.319Z,13.70
2023-03-19T03:51:25.337Z,13.70
2023-03-19T03:52:25.381Z,13.10
2023-03-19T03:53:25.282Z,15.00
2023-03-19T03:54:25.269Z,13.60
2023-03-19T03:55:25.280Z,12.80
2023-03-19T03:56:25.274Z,12.70
2023-03-19T03:57:25.284Z,11.90
2023-03-19T03:58:25.267Z,12.60
2023-03-19T03:59:25.220Z,13.60
2023-03-19T04:00:25.217Z,13.60
2023-03-19T04:01:25.194Z,12.10
2023-03-19T04:02:25.295Z,13.40
2023-03-19T04:03:25.210Z,13.90
2023-03-19T04:04:25.241Z,14.20
2023-03-19T04:05:25.146Z,14.40
2023-03-19T04:06:25.133Z,13.30
2023-03-19T04:07:25.134Z,13.10
2023-03-19T04:08:25.147Z,14.70
2023-03-19T04:09:25.135Z,14.10
2023-03-19T04:10:25.172Z,15.30
2023-03-19T04:11:25.081Z,16.10
2023-03-19T04:12:25.070Z,13.90
2023-03-19T04:13:25.089Z,12.70
2023-03-19T04:14:25.042Z,13.90
2023-03-19T04:15:25.069Z,13.60
2023-03-19T04:16:25.131Z,12.90
2023-03-19T04:17:25.020Z,13.40
2023-03-19T04:18:25.041Z,12.80
2023-03-19T04:19:25.000Z,13.10
2023-03-19T04:20:25.011Z,12.60
2023-03-19T04:21:24.968Z,12.10
2023-03-19T04:22:25.014Z,14.30
2023-03-19T04:23:24.944Z,13.30
2023-03-19T04:24:24.940Z,13.30
2023-03-19T04:25:24.946Z,14.80
2023-03-19T04:26:24.912Z,15.10
2023-03-19T04:27:24.921Z,15.20
2023-03-19T04:28:24.921Z,14.30
2023-03-19T04:29:24.923Z,14.40
2023-03-19T04:30:24.880Z,15.10
2023-03-19T04:31:24.862Z,13.60
2023-03-19T04:32:24.840Z,13.90
2023-03-19T04:33:24.854Z,13.70
2023-03-19T04:34:24.875Z,14.20
2023-03-19T04:35:24.992Z,13.50
2023-03-19T04:36:24.816Z,12.30
2023-03-19T04:37:24.930Z,14.20
2023-03-19T04:38:24.779Z,12.40
2023-03-19T04:39:24.765Z,14.30
2023-03-19T04:40:24.836Z,13.00
2023-03-19T04:41:24.781Z,13.30
2023-03-19T04:42:24.760Z,13.00
2023-03-19T04:43:24.718Z,13.40
2023-03-19T04:44:24.704Z,16.20
2023-03-19T04:45:24.720Z,13.40
2023-03-19T04:46:24.796Z,14.00
2023-03-19T04:47:24.713Z,12.60
2023-03-19T04:48:24.662Z,14.00
2023-03-19T04:49:24.691Z,13.60
2023-03-19T04:50:24.640Z,12.70
2023-03-19T04:51:24.638Z,12.60
2023-03-19T04:52:24.669Z,12.30
2023-03-19T04:53:24.636Z,13.90
2023-03-19T04:54:24.623Z,13.40
2023-03-19T04:55:24.582Z,15.00
2023-03-19T04:56:24.595Z,13.10
2023-03-19T04:57:24.564Z,16.10
2023-03-19T04:58:24.614Z,14.60
2023-03-19T04:59:24.568Z,14.90
2023-03-19T05:00:33.700Z,13.60
2023-03-19T05:01:24.554Z,13.00
2023-03-19T05:02:24.502Z,14.40
2023-03-19T05:03:24.529Z,13.00
2023-03-19T05:04:24.491Z,14.50
2023-03-19T05:05:24.519Z,14.10
2023-03-19T05:06:24.457Z,12.80
2023-03-19T05:07:24.451Z,13.90
2023-03-19T05:08:24.460Z,13.10
2023-03-19T05:09:24.431Z,12.50
2023-03-19T05:10:24.429Z,13.80
2023-03-19T05:11:24.440Z,14.30
2023-03-19T05:12:24.420Z,12.40
2023-03-19T05:13:24.410Z,13.20
2023-03-19T05:14:24.368Z,14.70
2023-03-19T05:15:24.406Z,13.30
2023-03-19T05:16:24.415Z,12.90
2023-03-19T05:17:24.370Z,13.10
2023-03-19T05:18:24.321Z,14.40
2023-03-19T05:19:24.319Z,13.50
2023-03-19T05:20:24.344Z,13.50
2023-03-19T05:21:24.300Z,12.80
2023-03-19T05:22:24.276Z,14.70
2023-03-19T05:23:24.263Z,12.70
2023-03-19T05:24:24.254Z,11.80
2023-03-19T05:25:24.272Z,14.50
2023-03-19T05:26:24.298Z,11.80
2023-03-19T05:27:24.240Z,12.60
2023-03-19T05:28:24.214Z,13.30
2023-03-19T05:29:24.195Z,13.80
2023-03-19T05:30:24.190Z,13.20
2023-03-19T05:31:24.219Z,14.00
2023-03-19T05:32:24.238Z,15.40
2023-03-19T05:33:24.187Z,15.70
2023-03-19T05:34:24.153Z,16.00
2023-03-19T05:35:24.148Z,15.10
2023-03-19T05:36:24.134Z,20.50
2023-03-19T05:37:24.110Z,16.10
2023-03-19T05:38:24.133Z,14.80
2023-03-19T05:39:24.124Z,15.80
2023-03-19T05:40:24.072Z,15.50
2023-03-19T05:41:24.062Z,14.60
2023-03-19T05:42:24.069Z,13.60
2023-03-19T05:43:24.052Z,13.50
2023-03-19T05:44:24.071Z,13.80
2023-03-19T05:45:24.063Z,13.80
2023-03-19T05:46:24.041Z,15.50
2023-03-19T05:47:24.008Z,14.40
2023-03-19T05:48:24.005Z,13.70
2023-03-19T05:49:23.997Z,13.70
2023-03-19T05:50:23.999Z,14.60
2023-03-19T05:51:24.008Z,13.80
2023-03-19T05:52:23.938Z,14.30
2023-03-19T05:53:23.937Z,14.90
2023-03-19T05:54:23.920Z,14.10
2023-03-19T05:55:23.927Z,14.00
2023-03-19T05:56:23.930Z,17.50
2023-03-19T05:57:23.887Z,14.50
2023-03-19T05:58:23.903Z,14.80
2023-03-19T05:59:23.883Z,14.00
2023-03-19T06:00:23.858Z,14.40
2023-03-19T06:01:23.911Z,15.70
2023-03-19T06:02:23.917Z,15.90
2023-03-19T06:03:23.836Z,15.10
2023-03-19T06:04:23.893Z,14.40
2023-03-19T06:05:23.794Z,14.10
2023-03-19T06:06:23.794Z,15.70
2023-03-19T06:07:23.804Z,13.70
2023-03-19T06:08:23.832Z,14.30
2023-03-19T06:09:23.771Z,15.00
2023-03-19T06:10:23.746Z,14.20
2023-03-19T06:11:23.729Z,14.30
2023-03-19T06:12:23.770Z,16.60
2023-03-19T06:13:23.735Z,13.60
2023-03-19T06:14:23.700Z,16.00
2023-03-19T06:15:23.677Z,15.70
2023-03-19T06:16:23.757Z,16.00
2023-03-19T06:17:23.674Z,17.50
2023-03-19T06:18:23.659Z,14.70
2023-03-19T06:19:23.671Z,16.40
2023-03-19T06:20:23.644Z,15.00
2023-03-19T06:21:23.614Z,14.60
2023-03-19T06:22:23.605Z,14.30
2023-03-19T06:23:23.594Z,17.10
2023-03-19T06:24:23.615Z,17.30
2023-03-19T06:25:23.586Z,16.80
2023-03-19T06:26:23.650Z,16.40
2023-03-19T06:27:23.556Z,16.30
2023-03-19T06:28:23.543Z,16.40
2023-03-19T06:29:23.533Z,15.90
2023-03-19T06:30:23.510Z,16.00
2023-03-19T06:31:23.543Z,15.90
2023-03-19T06:32:23.585Z,15.80
2023-03-19T06:33:23.479Z,16.70
2023-03-19T06:34:23.482Z,15.60
2023-03-19T06:35:23.552Z,16.40
2023-03-19T06:36:23.514Z,16.60
2023-03-19T06:37:23.467Z,17.00
2023-03-19T06:38:23.449Z,16.70
2023-03-19T06:39:23.415Z,17.50
2023-03-19T06:40:23.432Z,17.10
2023-03-19T06:41:23.409Z,18.20
2023-03-19T06:42:23.466Z,18.80
2023-03-19T06:43:23.403Z,18.50
2023-03-19T06:44:23.447Z,20.90
2023-03-19T06:45:23.361Z,23.30
2023-03-19T06:46:23.460Z,19.10
2023-03-19T06:47:23.320Z,17.50
2023-03-19T06:48:23.329Z,16.80
2023-03-19T06:49:23.336Z,16.30
2023-03-19T06:50:23.329Z,17.20
2023-03-19T06:51:23.330Z,17.90
2023-03-19T06:52:23.286Z,16.20
2023-03-19T06:53:23.258Z,17.90
2023-03-19T06:54:23.250Z,16.80
2023-03-19T06:55:23.243Z,18.20
2023-03-19T06:56:23.294Z,17.30
2023-03-19T06:57:23.236Z,17.10
2023-03-19T06:58:23.205Z,75.10
2023-03-19T06:59:23.190Z,37.80
2023-03-19T07:00:23.180Z,23.30
2023-03-19T07:01:23.520Z,27.10
2023-03-19T07:02:23.180Z,20.70
2023-03-19T07:03:23.205Z,17.60
2023-03-19T07:04:23.170Z,19.60
2023-03-19T07:05:23.122Z,19.00
2023-03-19T07:06:23.125Z,18.00
2023-03-19T07:07:23.133Z,18.70
2023-03-19T07:08:23.133Z,19.30
2023-03-19T07:09:23.081Z,18.10
2023-03-19T07:10:23.107Z,19.50
2023-03-19T07:11:23.054Z,19.10
2023-03-19T07:12:23.071Z,20.20
2023-03-19T07:13:23.043Z,18.40
2023-03-19T07:14:23.052Z,21.00
2023-03-19T07:15:23.094Z,20.00
2023-03-19T07:16:23.007Z,19.30
2023-03-19T07:17:22.994Z,19.90
2023-03-19T07:18:22.994Z,20.60
2023-03-19T07:19:22.995Z,21.90
2023-03-19T07:20:22.973Z,18.60
2023-03-19T07:21:22.975Z,18.50
2023-03-19T07:22:22.942Z,18.90
2023-03-19T07:23:22.923Z,19.90
2023-03-19T07:24:22.958Z,18.80
2023-03-19T07:25:22.938Z,18.90
2023-03-19T07:26:22.889Z,19.10
2023-03-19T07:27:22.883Z,19.10
2023-03-19T07:28:22.896Z,19.00
2023-03-19T07:29:22.865Z,18.60
2023-03-19T07:30:22.847Z,19.40
2023-03-19T07:31:22.896Z,18.50
2023-03-19T07:32:22.820Z,19.10
2023-03-19T07:33:22.876Z,20.40
2023-03-19T07:34:22.798Z,19.20
2023-03-19T07:35:22.903Z,19.30
2023-03-19T07:36:22.812Z,21.50
2023-03-19T07:37:22.782Z,19.50
2023-03-19T07:38:22.753Z,19.50
2023-03-19T07:39:22.757Z,18.30
2023-03-19T07:40:22.766Z,18.90
2023-03-19T07:41:22.737Z,16.60
2023-03-19T07:42:22.727Z,17.30
2023-03-19T07:43:22.696Z,17.30
2023-03-19T07:44:22.721Z,18.00
2023-03-19T07:45:22.731Z,19.00
2023-03-19T07:46:22.713Z,15.90
2023-03-19T07:47:28.967Z,17.10
2023-03-19T07:48:23.647Z,15.30
2023-03-19T07:49:22.622Z,16.70
2023-03-19T07:50:22.613Z,16.70
2023-03-19T07:51:22.648Z,17.50
2023-03-19T07:52:22.594Z,16.50
2023-03-19T07:53:22.598Z,16.80
2023-03-19T07:54:22.600Z,14.00
2023-03-19T07:55:22.605Z,14.20
2023-03-19T07:56:22.566Z,13.30
2023-03-19T07:57:22.573Z,14.20
2023-03-19T07:58:22.588Z,13.90
2023-03-19T07:59:22.517Z,14.70
2023-03-19T08:00:22.513Z,11.30
2023-03-19T08:01:22.492Z,11.50
2023-03-19T08:02:23.663Z,11.20
2023-03-19T08:03:22.508Z,10.20
2023-03-19T08:04:22.649Z,10.50
2023-03-19T08:05:22.475Z,9.40
2023-03-19T08:06:22.475Z,11.00
2023-03-19T08:07:22.424Z,11.50
2023-03-19T08:08:22.410Z,8.30
2023-03-19T08:09:22.399Z,8.50
2023-03-19T08:10:22.438Z,7.80
2023-03-19T08:11:22.371Z,8.80
2023-03-19T08:12:22.418Z,8.70
2023-03-19T08:13:22.352Z,7.40
2023-03-19T08:14:22.394Z,7.00
2023-03-19T08:15:22.338Z,8.30
2023-03-19T08:16:22.365Z,7.60
2023-03-19T08:17:22.307Z,7.10
2023-03-19T08:18:22.359Z,8.20
2023-03-19T08:19:22.287Z,6.40
2023-03-19T08:20:22.292Z,6.90
2023-03-19T08:21:22.274Z,6.90
2023-03-19T08:22:22.283Z,6.00
2023-03-19T08:23:22.239Z,6.40
2023-03-19T08:24:22.251Z,6.50
2023-03-19T08:25:22.223Z,6.10
2023-03-19T08:26:22.207Z,6.60
2023-03-19T08:27:22.228Z,7.60
2023-03-19T08:28:22.246Z,8.00
2023-03-19T08:29:22.177Z,6.50
2023-03-19T08:30:22.456Z,14.50
2023-03-19T08:31:22.186Z,16.20
2023-03-19T08:32:22.145Z,11.20
2023-03-19T08:33:22.141Z,6.50
2023-03-19T08:34:22.147Z,7.20
2023-03-19T08:35:22.136Z,9.00
2023-03-19T08:36:22.094Z,8.40
2023-03-19T08:37:22.080Z,8.30
2023-03-19T08:38:22.080Z,7.10
2023-03-19T08:39:22.068Z,6.10
2023-03-19T08:40:22.118Z,8.40
2023-03-19T08:41:22.068Z,9.70
2023-03-19T08:42:22.154Z,11.30
2023-03-19T08:43:22.209Z,17.90
2023-03-19T08:44:22.047Z,20.00
2023-03-19T08:45:22.022Z,8.50
2023-03-19T08:46:22.094Z,24.40
2023-03-19T08:47:21.981Z,23.10
2023-03-19T08:48:21.985Z,13.20
2023-03-19T08:49:21.954Z,9.00
2023-03-19T08:50:21.977Z,7.30
2023-03-19T08:51:21.920Z,7.00
2023-03-19T08:52:21.945Z,6.70
2023-03-19T08:53:21.907Z,6.50
2023-03-19T08:54:23.052Z,6.40
2023-03-19T08:55:21.891Z,6.50
2023-03-19T08:56:21.901Z,5.70
2023-03-19T08:57:21.855Z,5.50
2023-03-19T08:58:21.844Z,5.60
2023-03-19T08:59:21.865Z,5.90
2023-03-19T09:00:21.852Z,6.60
2023-03-19T09:01:21.889Z,5.80
2023-03-19T09:02:21.814Z,6.90
2023-03-19T09:03:21.798Z,5.30
2023-03-19T09:04:21.811Z,6.40
2023-03-19T09:05:21.798Z,5.30
2023-03-19T09:06:21.776Z,5.30
2023-03-19T09:07:21.758Z,5.70
2023-03-19T09:08:21.778Z,5.60
2023-03-19T09:09:21.719Z,5.20
2023-03-19T09:10:21.710Z,7.00
2023-03-19T09:11:21.715Z,5.90
2023-03-19T09:12:21.705Z,6.00
2023-03-19T09:13:21.725Z,5.40
2023-03-19T09:14:21.665Z,6.20
2023-03-19T09:15:21.694Z,5.40
2023-03-19T09:16:21.833Z,5.20
2023-03-19T09:17:21.644Z,5.20
2023-03-19T09:18:21.629Z,5.30
2023-03-19T09:19:21.605Z,4.90
2023-03-19T09:20:21.619Z,5.30
2023-03-19T09:21:21.582Z,6.20
2023-03-19T09:22:21.594Z,5.30
2023-03-19T09:23:21.579Z,6.10
2023-03-19T09:24:21.585Z,5.70
2023-03-19T09:25:21.541Z,5.10
2023-03-19T09:26:21.534Z,5.10
2023-03-19T09:27:21.521Z,5.20
2023-03-19T09:28:21.509Z,5.60
2023-03-19T09:29:21.512Z,6.60
2023-03-19T09:30:21.520Z,6.10
2023-03-19T09:31:21.515Z,5.10
2023-03-19T09:32:21.498Z,5.30
2023-03-19T09:33:21.475Z,6.10
2023-03-19T09:34:21.443Z,5.40
2023-03-19T09:35:21.463Z,5.30
2023-03-19T09:36:21.417Z,5.00
2023-03-19T09:37:21.408Z,5.90
2023-03-19T09:38:21.431Z,6.00
2023-03-19T09:39:21.408Z,6.40
2023-03-19T09:40:21.505Z,7.10
2023-03-19T09:41:21.384Z,5.30
2023-03-19T09:42:21.355Z,4.70
2023-03-19T09:43:21.362Z,6.00
2023-03-19T09:44:21.352Z,5.00
2023-03-19T09:45:21.319Z,4.50
2023-03-19T09:46:22.871Z,4.50
2023-03-19T09:47:21.312Z,5.30
2023-03-19T09:48:21.325Z,4.70
2023-03-19T09:49:21.278Z,4.60
2023-03-19T09:50:21.263Z,5.10
2023-03-19T09:51:21.254Z,4.60
2023-03-19T09:52:21.253Z,4.80
2023-03-19T09:53:21.361Z,4.70
2023-03-19T09:54:21.224Z,4.40
2023-03-19T09:55:21.216Z,4.70
2023-03-19T09:56:21.194Z,4.30
2023-03-19T09:57:21.218Z,4.40
2023-03-19T09:58:21.190Z,3.90
2023-03-19T09:59:21.161Z,4.60
2023-03-19T10:00:21.226Z,4.70
2023-03-19T10:01:21.202Z,4.50
2023-03-19T10:02:21.164Z,4.20
2023-03-19T10:03:21.135Z,5.10
2023-03-19T10:04:21.308Z,4.80
2023-03-19T10:05:21.135Z,4.60
2023-03-19T10:06:21.082Z,5.40
2023-03-19T10:07:21.085Z,4.10
2023-03-19T10:08:21.081Z,4.30
2023-03-19T10:09:21.064Z,4.40
2023-03-19T10:10:21.163Z,4.80
2023-03-19T10:11:21.047Z,4.00
2023-03-19T10:12:21.044Z,4.40
2023-03-19T10:13:21.007Z,4.80
2023-03-19T10:14:21.034Z,3.80
2023-03-19T10:15:21.017Z,4.60
2023-03-19T10:16:21.088Z,4.10
2023-03-19T10:17:20.969Z,4.30
2023-03-19T10:18:20.996Z,4.90
2023-03-19T10:19:22.228Z,4.30
2023-03-19T10:20:20.957Z,4.30
2023-03-19T10:21:20.952Z,4.40
2023-03-19T10:22:20.902Z,4.50
2023-03-19T10:23:20.895Z,4.80
2023-03-19T10:24:20.905Z,5.20
2023-03-19T10:25:20.879Z,4.30
2023-03-19T10:26:20.880Z,4.40
2023-03-19T10:27:20.884Z,5.30
2023-03-19T10:28:20.840Z,4.60
2023-03-19T10:29:20.844Z,4.30
2023-03-19T10:30:20.823Z,4.90
2023-03-19T10:31:20.863Z,4.20
2023-03-19T10:32:20.830Z,4.70
2023-03-19T10:33:20.783Z,4.40
2023-03-19T10:34:20.796Z,4.70
2023-03-19T10:35:20.770Z,4.90
2023-03-19T10:36:20.842Z,4.70
2023-03-19T10:37:20.772Z,4.20
2023-03-19T10:38:20.726Z,4.60
2023-03-19T10:39:20.757Z,4.30
2023-03-19T10:40:20.706Z,4.50
2023-03-19T10:41:20.708Z,4.40
2023-03-19T10:42:20.697Z,4.60
2023-03-19T10:43:20.694Z,4.80
2023-03-19T10:44:20.706Z,5.10
2023-03-19T10:45:20.682Z,4.80
2023-03-19T10:46:20.660Z,4.90
2023-03-19T10:47:20.657Z,4.60
2023-03-19T10:48:20.636Z,5.10
2023-03-19T10:49:20.642Z,5.00
2023-03-19T10:50:20.593Z,4.80
2023-03-19T10:51:20.587Z,4.40
2023-03-19T10:52:20.619Z,4.80
2023-03-19T10:53:20.564Z,4.40
2023-03-19T10:54:20.572Z,5.20
2023-03-19T10:55:20.542Z,4.40
2023-03-19T10:56:20.548Z,4.50
2023-03-19T10:57:20.546Z,4.80
2023-03-19T10:58:20.517Z,4.40
2023-03-19T10:59:20.504Z,4.60
2023-03-19T11:00:20.498Z,5.00
2023-03-19T11:01:20.516Z,4.20
2023-03-19T11:02:20.480Z,4.60
2023-03-19T11:03:20.449Z,4.20
2023-03-19T11:04:20.473Z,4.80
2023-03-19T11:05:20.438Z,5.20
2023-03-19T11:06:20.458Z,5.10
2023-03-19T11:07:20.402Z,5.90
2023-03-19T11:08:35.042Z,5.40
2023-03-19T11:09:21.418Z,6.50
2023-03-19T11:10:20.373Z,6.10
2023-03-19T11:11:20.378Z,6.00
2023-03-19T11:12:20.384Z,5.20
2023-03-19T11:13:20.345Z,4.80
2023-03-19T11:14:20.325Z,5.00
2023-03-19T11:15:20.342Z,5.50
2023-03-19T11:16:20.334Z,4.40
2023-03-19T11:17:20.308Z,4.90
2023-03-19T11:18:20.284Z,3.80
2023-03-19T11:19:20.320Z,3.50
2023-03-19T11:20:20.261Z,3.50
2023-03-19T11:21:20.251Z,4.50
2023-03-19T11:22:21.044Z,3.30
2023-03-19T11:23:20.229Z,4.10
2023-03-19T11:24:20.225Z,3.70
2023-03-19T11:25:20.245Z,3.50
2023-03-19T11:26:20.194Z,4.50
2023-03-19T11:27:20.180Z,4.00
2023-03-19T11:28:22.110Z,4.20
2023-03-19T11:29:20.192Z,3.70
2023-03-19T11:30:20.145Z,4.10
2023-03-19T11:31:20.169Z,4.10
2023-03-19T11:32:22.078Z,3.20
2023-03-19T11:33:20.190Z,3.70
2023-03-19T11:34:20.119Z,3.70
2023-03-19T11:35:20.096Z,4.40
2023-03-19T11:36:20.124Z,3.40
2023-03-19T11:37:20.099Z,3.00
2023-03-19T11:38:20.054Z,4.00
2023-03-19T11:39:20.056Z,3.00
2023-03-19T11:40:20.126Z,3.80
2023-03-19T11:41:20.021Z,3.50
2023-03-19T11:42:20.013Z,3.90
2023-03-19T11:43:20.008Z,3.50
2023-03-19T11:44:19.991Z,4.70
2023-03-19T11:45:20.001Z,2.90
2023-03-19T11:46:20.005Z,3.00
2023-03-19T11:47:27.235Z,2.50
2023-03-19T11:48:20.972Z,2.60
2023-03-19T11:49:19.948Z,2.50
2023-03-19T11:50:19.952Z,3.60
2023-03-19T11:51:19.938Z,2.20
2023-03-19T11:52:19.900Z,2.20
2023-03-19T11:53:19.909Z,2.10
2023-03-19T11:54:19.886Z,3.30
2023-03-19T11:55:19.862Z,2.30
2023-03-19T11:56:19.885Z,2.80
2023-03-19T11:57:19.877Z,2.50
2023-03-19T11:58:19.846Z,2.30
2023-03-19T11:59:19.856Z,2.20
2023-03-19T12:00:19.845Z,3.50
2023-03-19T12:01:19.801Z,2.60
2023-03-19T12:02:19.823Z,2.10
2023-03-19T12:03:19.842Z,2.70
2023-03-19T12:04:19.763Z,3.50
2023-03-19T12:05:19.751Z,3.10
2023-03-19T12:06:19.779Z,2.70
2023-03-19T12:07:19.769Z,2.30
2023-03-19T12:08:19.874Z,2.20
2023-03-19T12:09:19.708Z,2.60
2023-03-19T12:10:19.730Z,2.30
2023-03-19T12:11:19.731Z,2.30
2023-03-19T12:12:19.694Z,3.30
2023-03-19T12:13:19.687Z,2.70
2023-03-19T12:14:19.649Z,2.40
2023-03-19T12:15:19.639Z,2.80
2023-03-19T12:16:19.706Z,3.00
2023-03-19T12:17:19.644Z,2.60
2023-03-19T12:18:19.621Z,3.30
2023-03-19T12:19:19.614Z,2.30
2023-03-19T12:20:19.583Z,2.80
2023-03-19T12:21:19.587Z,3.10
2023-03-19T12:22:19.597Z,2.40
2023-03-19T12:23:19.551Z,2.40
2023-03-19T12:24:19.564Z,2.60
2023-03-19T12:25:19.526Z,2.80
2023-03-19T12:28:17.255Z,4.20
2023-03-19T12:29:17.197Z,2.90
2023-03-19T12:30:26.276Z,2.30
2023-03-19T12:31:17.307Z,3.00
2023-03-19T12:32:17.174Z,3.20
2023-03-19T12:33:17.154Z,2.80
2023-03-19T12:34:27.021Z,2.80
2023-03-19T12:35:17.133Z,3.20
2023-03-19T12:36:17.177Z,2.90
2023-03-19T12:37:17.140Z,2.50
2023-03-19T12:38:17.135Z,2.40
2023-03-19T12:39:17.094Z,2.40
2023-03-19T12:40:17.192Z,3.10
2023-03-19T12:41:17.062Z,3.20
2023-03-19T12:42:17.073Z,2.40
2023-03-19T12:43:17.041Z,2.40
2023-03-19T12:44:17.078Z,3.10
2023-03-19T12:45:17.048Z,2.70
2023-03-19T12:46:25.635Z,3.30
2023-03-19T12:47:17.017Z,3.20
2023-03-19T12:48:17.011Z,2.40
2023-03-19T12:49:17.029Z,3.10
2023-03-19T12:50:16.989Z,3.40
2023-03-19T12:51:16.996Z,3.10
2023-03-19T12:52:17.039Z,3.00
2023-03-19T12:53:16.964Z,3.20
2023-03-19T12:54:16.965Z,3.00
2023-03-19T12:55:16.986Z,3.10
2023-03-19T12:56:16.923Z,3.40
2023-03-19T12:57:16.967Z,7.10
2023-03-19T12:58:16.926Z,2.20
2023-03-19T12:59:16.956Z,2.80
2023-03-19T13:00:16.968Z,2.40
2023-03-19T13:01:16.921Z,2.80
2023-03-19T13:02:17.067Z,2.60
2023-03-19T13:03:16.820Z,2.40